Carpentersville, Illinois
Current Conditions -  °F | °C
As of 1:52 AM on Sunday 26 Oct 2014 (Local Time) from KDPA Reporting Station
Clear Clear  
Wind Chill: 45°   Ceiling: Unl
Heat Index: 49°   Visibility: 10mi
Dew Point: 29°   Wind: 9mph
Humidity: 46%   Direction: 310°NW
Pressure: 29.99"   Gusts: NA
Location:  42.12°N, 88.26°W
Report Text: KDPA 260652Z 31008KT 10SM CLR 09/M02 A2999 RMK AO2 SLP156 T00941017
Loading
Personal Weather Stations






























Interactive Weather Map
Tropical Storm Tracking
New forecast layout! Learn more

10-Day Weather Forecast

Advertisements
Track Severe Weather on mobile